sensor_id;sensor_type;location;lat;lon;timestamp;pressure;altitude;pressure_sealevel;temperature;humidity
55540;BME280;41384;51.418;7.286;2023-04-26T00:02:14;100097.13;;;5.33;76.24
55540;BME280;41384;51.418;7.286;2023-04-26T00:04:40;100096.56;;;5.79;75.38
55540;BME280;41384;51.418;7.286;2023-04-26T00:07:05;100093.13;;;5.70;74.97
55540;BME280;41384;51.418;7.286;2023-04-26T00:09:32;100097.69;;;5.93;74.51
55540;BME280;41384;51.418;7.286;2023-04-26T00:11:57;100101.97;;;5.86;73.71
55540;BME280;41384;51.418;7.286;2023-04-26T00:14:23;100097.88;;;5.75;74.63
55540;BME280;41384;51.418;7.286;2023-04-26T00:16:48;100091.09;;;6.05;73.58
55540;BME280;41384;51.418;7.286;2023-04-26T00:19:13;100094.31;;;6.24;72.84
55540;BME280;41384;51.418;7.286;2023-04-26T00:21:40;100093.97;;;6.27;72.61
55540;BME280;41384;51.418;7.286;2023-04-26T00:24:05;100093.69;;;6.13;72.42
55540;BME280;41384;51.418;7.286;2023-04-26T00:26:31;100088.50;;;6.05;73.23
55540;BME280;41384;51.418;7.286;2023-04-26T00:28:58;100088.84;;;5.94;73.35
55540;BME280;41384;51.418;7.286;2023-04-26T00:31:23;100089.88;;;5.60;75.44
55540;BME280;41384;51.418;7.286;2023-04-26T00:33:50;100090.06;;;5.50;75.08
55540;BME280;41384;51.418;7.286;2023-04-26T00:36:15;100079.38;;;5.84;74.23
55540;BME280;41384;51.418;7.286;2023-04-26T00:38:43;100079.41;;;5.51;75.86
55540;BME280;41384;51.418;7.286;2023-04-26T00:41:08;100083.22;;;5.24;76.35
55540;BME280;41384;51.418;7.286;2023-04-26T00:43:34;100077.16;;;5.32;76.71
55540;BME280;41384;51.418;7.286;2023-04-26T00:46:00;100080.78;;;4.97;77.47
55540;BME280;41384;51.418;7.286;2023-04-26T00:48:25;100088.09;;;4.86;78.58
55540;BME280;41384;51.418;7.286;2023-04-26T00:50:51;100086.59;;;4.66;79.93
55540;BME280;41384;51.418;7.286;2023-04-26T00:53:16;100091.03;;;4.66;80.05
55540;BME280;41384;51.418;7.286;2023-04-26T00:55:42;100076.31;;;4.73;80.00
55540;BME280;41384;51.418;7.286;2023-04-26T00:58:08;100075.38;;;4.91;79.30
55540;BME280;41384;51.418;7.286;2023-04-26T01:00:33;100078.44;;;4.70;80.31
55540;BME280;41384;51.418;7.286;2023-04-26T01:02:59;100069.47;;;4.72;80.04
55540;BME280;41384;51.418;7.286;2023-04-26T01:05:24;100083.47;;;4.46;81.39
55540;BME280;41384;51.418;7.286;2023-04-26T01:07:50;100076.47;;;4.63;80.75
55540;BME280;41384;51.418;7.286;2023-04-26T01:10:16;100081.69;;;4.63;81.20
55540;BME280;41384;51.418;7.286;2023-04-26T01:12:41;100072.66;;;4.41;81.65
55540;BME280;41384;51.418;7.286;2023-04-26T01:15:07;100072.16;;;4.37;82.22
55540;BME280;41384;51.418;7.286;2023-04-26T01:17:33;100074.72;;;4.21;82.66
55540;BME280;41384;51.418;7.286;2023-04-26T01:19:58;100074.25;;;4.26;83.28
55540;BME280;41384;51.418;7.286;2023-04-26T01:22:24;100083.03;;;4.16;83.20
55540;BME280;41384;51.418;7.286;2023-04-26T01:24:50;100083.34;;;4.13;83.88
55540;BME280;41384;51.418;7.286;2023-04-26T01:27:17;100087.75;;;4.13;84.82
55540;BME280;41384;51.418;7.286;2023-04-26T01:29:42;100083.84;;;4.08;85.09
55540;BME280;41384;51.418;7.286;2023-04-26T01:32:08;100077.81;;;4.24;84.28
55540;BME280;41384;51.418;7.286;2023-04-26T01:34:33;100085.47;;;4.61;83.30
55540;BME280;41384;51.418;7.286;2023-04-26T01:37:02;100085.06;;;4.39;83.25
55540;BME280;41384;51.418;7.286;2023-04-26T01:39:28;100092.41;;;4.35;83.74
55540;BME280;41384;51.418;7.286;2023-04-26T01:41:53;100087.34;;;4.34;83.41
55540;BME280;41384;51.418;7.286;2023-04-26T01:44:18;100088.53;;;4.48;83.04
55540;BME280;41384;51.418;7.286;2023-04-26T01:46:44;100088.19;;;4.43;83.20
55540;BME280;41384;51.418;7.286;2023-04-26T01:49:10;100089.19;;;4.50;82.68
55540;BME280;41384;51.418;7.286;2023-04-26T01:51:35;100088.88;;;4.53;82.70
55540;BME280;41384;51.418;7.286;2023-04-26T01:54:01;100082.16;;;4.42;82.65
55540;BME280;41384;51.418;7.286;2023-04-26T01:56:27;100079.66;;;4.32;82.67
55540;BME280;41384;51.418;7.286;2023-04-26T01:58:52;100078.25;;;4.46;82.23
55540;BME280;41384;51.418;7.286;2023-04-26T02:01:20;100083.25;;;4.31;82.89
55540;BME280;41384;51.418;7.286;2023-04-26T02:03:45;100082.25;;;4.24;84.36
55540;BME280;41384;51.418;7.286;2023-04-26T02:06:10;100084.56;;;4.35;83.91
55540;BME280;41384;51.418;7.286;2023-04-26T02:08:36;100086.88;;;4.38;83.50
55540;BME280;41384;51.418;7.286;2023-04-26T02:11:01;100092.31;;;4.53;83.21
55540;BME280;41384;51.418;7.286;2023-04-26T02:13:26;100088.41;;;4.58;82.55
55540;BME280;41384;51.418;7.286;2023-04-26T02:15:52;100088.22;;;4.51;82.60
55540;BME280;41384;51.418;7.286;2023-04-26T02:18:17;100083.97;;;4.58;81.60
55540;BME280;41384;51.418;7.286;2023-04-26T02:20:46;100084.66;;;4.68;81.01
55540;BME280;41384;51.418;7.286;2023-04-26T02:23:11;100089.09;;;4.76;81.73
55540;BME280;41384;51.418;7.286;2023-04-26T02:25:37;100086.16;;;5.13;79.21
55540;BME280;41384;51.418;7.286;2023-04-26T02:28:04;100083.06;;;5.01;79.23
55540;BME280;41384;51.418;7.286;2023-04-26T02:30:29;100093.53;;;5.25;78.01
55540;BME280;41384;51.418;7.286;2023-04-26T02:32:55;100086.47;;;5.09;78.60
55540;BME280;41384;51.418;7.286;2023-04-26T02:35:21;100084.84;;;5.25;77.19
55540;BME280;41384;51.418;7.286;2023-04-26T02:37:47;100088.44;;;5.16;78.13
55540;BME280;41384;51.418;7.286;2023-04-26T02:40:17;100083.38;;;4.97;78.49
55540;BME280;41384;51.418;7.286;2023-04-26T02:42:42;100082.09;;;5.02;78.13
55540;BME280;41384;51.418;7.286;2023-04-26T02:45:07;100081.22;;;4.76;79.36
55540;BME280;41384;51.418;7.286;2023-04-26T02:47:33;100084.84;;;4.92;79.03
55540;BME280;41384;51.418;7.286;2023-04-26T02:50:01;100085.34;;;4.95;79.09
55540;BME280;41384;51.418;7.286;2023-04-26T02:52:26;100072.91;;;5.22;78.09
55540;BME280;41384;51.418;7.286;2023-04-26T02:54:52;100072.28;;;5.04;77.99
55540;BME280;41384;51.418;7.286;2023-04-26T02:57:17;100084.03;;;5.24;77.39
55540;BME280;41384;51.418;7.286;2023-04-26T02:59:42;100079.47;;;5.18;76.71
55540;BME280;41384;51.418;7.286;2023-04-26T03:02:08;100078.97;;;5.31;77.09
55540;BME280;41384;51.418;7.286;2023-04-26T03:04:33;100074.88;;;5.20;77.24
55540;BME280;41384;51.418;7.286;2023-04-26T03:07:01;100078.63;;;5.18;76.86
55540;BME280;41384;51.418;7.286;2023-04-26T03:09:26;100074.22;;;5.18;77.48
55540;BME280;41384;51.418;7.286;2023-04-26T03:11:51;100068.66;;;5.21;77.07
55540;BME280;41384;51.418;7.286;2023-04-26T03:14:16;100074.41;;;5.33;76.62
55540;BME280;41384;51.418;7.286;2023-04-26T03:16:43;100072.28;;;4.95;78.51
55540;BME280;41384;51.418;7.286;2023-04-26T03:19:08;100070.31;;;5.06;78.02
55540;BME280;41384;51.418;7.286;2023-04-26T03:21:34;100074.56;;;5.15;77.24
55540;BME280;41384;51.418;7.286;2023-04-26T03:23:59;100071.44;;;5.03;78.24
55540;BME280;41384;51.418;7.286;2023-04-26T03:26:25;100075.88;;;5.19;77.25
55540;BME280;41384;51.418;7.286;2023-04-26T03:28:50;100068.16;;;5.18;77.18
55540;BME280;41384;51.418;7.286;2023-04-26T03:31:15;100069.81;;;5.02;78.22
55540;BME280;41384;51.418;7.286;2023-04-26T03:33:41;100067.38;;;5.01;78.39
55540;BME280;41384;51.418;7.286;2023-04-26T03:36:06;100065.88;;;5.15;77.50
55540;BME280;41384;51.418;7.286;2023-04-26T03:38:31;100062.13;;;5.17;76.82
55540;BME280;41384;51.418;7.286;2023-04-26T03:40:57;100064.75;;;5.09;77.81
55540;BME280;41384;51.418;7.286;2023-04-26T03:43:22;100069.66;;;4.95;79.25
55540;BME280;41384;51.418;7.286;2023-04-26T03:45:48;100065.22;;;4.63;79.78
55540;BME280;41384;51.418;7.286;2023-04-26T03:48:14;100061.09;;;4.60;80.38
55540;BME280;41384;51.418;7.286;2023-04-26T03:50:40;100060.44;;;4.58;80.78
55540;BME280;41384;51.418;7.286;2023-04-26T03:53:05;100047.16;;;4.35;81.95
55540;BME280;41384;51.418;7.286;2023-04-26T03:55:31;100055.47;;;4.22;82.08
55540;BME280;41384;51.418;7.286;2023-04-26T03:57:56;100058.66;;;3.99;84.08
55540;BME280;41384;51.418;7.286;2023-04-26T04:00:22;100056.75;;;4.18;84.06
55540;BME280;41384;51.418;7.286;2023-04-26T04:02:47;100063.13;;;4.23;83.92
55540;BME280;41384;51.418;7.286;2023-04-26T04:05:12;100065.13;;;4.38;83.79
55540;BME280;41384;51.418;7.286;2023-04-26T04:07:38;100065.53;;;4.60;81.76
55540;BME280;41384;51.418;7.286;2023-04-26T04:10:03;100054.75;;;4.88;81.02
55540;BME280;41384;51.418;7.286;2023-04-26T04:12:28;100060.78;;;4.63;80.87
55540;BME280;41384;51.418;7.286;2023-04-26T04:14:54;100064.25;;;4.80;80.60
55540;BME280;41384;51.418;7.286;2023-04-26T04:17:19;100066.38;;;4.93;79.47
55540;BME280;41384;51.418;7.286;2023-04-26T04:19:44;100061.78;;;4.79;79.75
55540;BME280;41384;51.418;7.286;2023-04-26T04:22:10;100072.00;;;4.39;82.16
55540;BME280;41384;51.418;7.286;2023-04-26T04:24:35;100063.34;;;4.38;83.32
55540;BME280;41384;51.418;7.286;2023-04-26T04:27:01;100067.00;;;4.71;82.22
55540;BME280;41384;51.418;7.286;2023-04-26T04:29:27;100066.66;;;4.74;81.46
55540;BME280;41384;51.418;7.286;2023-04-26T04:31:52;100070.13;;;4.91;80.91
55540;BME280;41384;51.418;7.286;2023-04-26T04:34:17;100069.16;;;4.92;80.55
55540;BME280;41384;51.418;7.286;2023-04-26T04:36:43;100074.88;;;4.87;80.01
55540;BME280;41384;51.418;7.286;2023-04-26T04:39:09;100070.97;;;4.91;81.07
55540;BME280;41384;51.418;7.286;2023-04-26T04:41:40;100074.25;;;5.02;80.41
55540;BME280;41384;51.418;7.286;2023-04-26T04:44:11;100072.91;;;5.22;79.09
55540;BME280;41384;51.418;7.286;2023-04-26T04:46:37;100079.94;;;5.22;79.28
55540;BME280;41384;51.418;7.286;2023-04-26T04:49:02;100079.47;;;5.10;79.82
55540;BME280;41384;51.418;7.286;2023-04-26T04:51:27;100079.44;;;5.35;78.47
55540;BME280;41384;51.418;7.286;2023-04-26T04:53:53;100081.75;;;5.13;79.39
55540;BME280;41384;51.418;7.286;2023-04-26T04:56:18;100080.78;;;5.22;78.54
55540;BME280;41384;51.418;7.286;2023-04-26T04:58:43;100084.50;;;5.28;78.50
55540;BME280;41384;51.418;7.286;2023-04-26T05:01:08;100072.25;;;5.29;79.46
55540;BME280;41384;51.418;7.286;2023-04-26T05:03:34;100088.63;;;5.31;78.59
55540;BME280;41384;51.418;7.286;2023-04-26T05:05:59;100091.72;;;5.43;78.94
55540;BME280;41384;51.418;7.286;2023-04-26T05:08:25;100086.50;;;5.34;78.48
55540;BME280;41384;51.418;7.286;2023-04-26T05:10:51;100087.78;;;5.22;79.73
55540;BME280;41384;51.418;7.286;2023-04-26T05:13:17;100090.72;;;5.02;80.58
55540;BME280;41384;51.418;7.286;2023-04-26T05:15:42;100096.16;;;5.25;79.48
55540;BME280;41384;51.418;7.286;2023-04-26T05:18:07;100097.44;;;5.21;79.74
55540;BME280;41384;51.418;7.286;2023-04-26T05:20:33;100100.72;;;5.32;79.28
55540;BME280;41384;51.418;7.286;2023-04-26T05:22:58;100099.41;;;5.28;79.25
55540;BME280;41384;51.418;7.286;2023-04-26T05:25:23;100110.53;;;5.38;79.81
55540;BME280;41384;51.418;7.286;2023-04-26T05:27:49;100108.25;;;5.26;79.94
55540;BME280;41384;51.418;7.286;2023-04-26T05:30:14;100107.44;;;5.34;79.18
55540;BME280;41384;51.418;7.286;2023-04-26T05:32:40;100110.84;;;5.35;79.32
55540;BME280;41384;51.418;7.286;2023-04-26T05:35:07;100110.06;;;5.34;79.28
55540;BME280;41384;51.418;7.286;2023-04-26T05:37:33;100114.97;;;5.37;78.86
55540;BME280;41384;51.418;7.286;2023-04-26T05:39:58;100123.16;;;5.34;79.34
55540;BME280;41384;51.418;7.286;2023-04-26T05:42:24;100117.25;;;5.40;79.60
55540;BME280;41384;51.418;7.286;2023-04-26T05:44:49;100117.88;;;5.59;78.33
55540;BME280;41384;51.418;7.286;2023-04-26T05:47:14;100126.22;;;5.46;79.38
55540;BME280;41384;51.418;7.286;2023-04-26T05:49:40;100124.75;;;5.60;78.55
55540;BME280;41384;51.418;7.286;2023-04-26T05:52:05;100123.44;;;5.64;77.66
55540;BME280;41384;51.418;7.286;2023-04-26T05:54:30;100126.84;;;5.65;78.74
55540;BME280;41384;51.418;7.286;2023-04-26T05:56:55;100131.28;;;5.64;78.59
55540;BME280;41384;51.418;7.286;2023-04-26T05:59:21;100131.44;;;5.63;79.05
55540;BME280;41384;51.418;7.286;2023-04-26T06:01:46;100140.59;;;5.83;78.58
55540;BME280;41384;51.418;7.286;2023-04-26T06:04:11;100136.34;;;5.82;78.45
55540;BME280;41384;51.418;7.286;2023-04-26T06:06:36;100137.47;;;5.80;78.84
55540;BME280;41384;51.418;7.286;2023-04-26T06:09:02;100138.28;;;5.89;78.36
55540;BME280;41384;51.418;7.286;2023-04-26T06:11:28;100144.00;;;5.92;79.04
55540;BME280;41384;51.418;7.286;2023-04-26T06:13:53;100142.53;;;6.06;78.62
55540;BME280;41384;51.418;7.286;2023-04-26T06:16:21;100140.53;;;6.17;78.42
55540;BME280;41384;51.418;7.286;2023-04-26T06:18:46;100139.56;;;6.09;78.72
55540;BME280;41384;51.418;7.286;2023-04-26T06:21:11;100139.19;;;6.29;76.87
55540;BME280;41384;51.418;7.286;2023-04-26T06:23:36;100139.19;;;6.29;76.62
55540;BME280;41384;51.418;7.286;2023-04-26T06:26:02;100138.53;;;6.27;76.56
55540;BME280;41384;51.418;7.286;2023-04-26T06:28:27;100146.34;;;6.35;76.35
55540;BME280;41384;51.418;7.286;2023-04-26T06:30:52;100149.97;;;6.34;76.29
55540;BME280;41384;51.418;7.286;2023-04-26T06:33:17;100152.75;;;6.41;76.97
55540;BME280;41384;51.418;7.286;2023-04-26T06:35:43;100158.25;;;6.54;75.56
55540;BME280;41384;51.418;7.286;2023-04-26T06:38:08;100152.69;;;6.49;76.06
55540;BME280;41384;51.418;7.286;2023-04-26T06:40:34;100155.81;;;6.45;76.54
55540;BME280;41384;51.418;7.286;2023-04-26T06:43:00;100156.91;;;6.59;76.11
55540;BME280;41384;51.418;7.286;2023-04-26T06:45:26;100161.22;;;6.51;75.99
55540;BME280;41384;51.418;7.286;2023-04-26T06:47:51;100159.34;;;6.60;76.84
55540;BME280;41384;51.418;7.286;2023-04-26T06:50:17;100160.00;;;6.62;77.01
55540;BME280;41384;51.418;7.286;2023-04-26T06:52:42;100164.88;;;6.42;77.68
55540;BME280;41384;51.418;7.286;2023-04-26T06:55:08;100166.16;;;6.46;77.82
55540;BME280;41384;51.418;7.286;2023-04-26T06:57:33;100158.34;;;6.69;77.73
55540;BME280;41384;51.418;7.286;2023-04-26T06:59:58;100161.22;;;6.83;76.98
55540;BME280;41384;51.418;7.286;2023-04-26T07:02:24;100146.81;;;6.79;76.53
55540;BME280;41384;51.418;7.286;2023-04-26T07:04:49;100153.94;;;6.93;75.61
55540;BME280;41384;51.418;7.286;2023-04-26T07:07:15;100146.72;;;6.95;75.51
55540;BME280;41384;51.418;7.286;2023-04-26T07:09:41;100161.41;;;7.05;75.95
55540;BME280;41384;51.418;7.286;2023-04-26T07:12:06;100148.44;;;7.11;74.35
55540;BME280;41384;51.418;7.286;2023-04-26T07:14:32;100153.31;;;7.14;73.87
55540;BME280;41384;51.418;7.286;2023-04-26T07:16:57;100146.31;;;7.07;74.87
55540;BME280;41384;51.418;7.286;2023-04-26T07:19:22;100148.16;;;7.21;74.03
55540;BME280;41384;51.418;7.286;2023-04-26T07:21:48;100151.97;;;7.19;73.92
55540;BME280;41384;51.418;7.286;2023-04-26T07:24:13;100145.75;;;7.35;73.18
55540;BME280;41384;51.418;7.286;2023-04-26T07:26:38;100148.47;;;7.26;72.67
55540;BME280;41384;51.418;7.286;2023-04-26T07:29:04;100147.16;;;7.45;71.13
55540;BME280;41384;51.418;7.286;2023-04-26T07:31:32;100144.91;;;7.42;71.92
55540;BME280;41384;51.418;7.286;2023-04-26T07:33:57;100148.41;;;7.35;72.12
55540;BME280;41384;51.418;7.286;2023-04-26T07:36:23;100149.09;;;7.52;70.88
55540;BME280;41384;51.418;7.286;2023-04-26T07:38:48;100149.13;;;7.67;69.79
55540;BME280;41384;51.418;7.286;2023-04-26T07:41:13;100149.47;;;7.64;68.62
55540;BME280;41384;51.418;7.286;2023-04-26T07:43:41;100148.13;;;7.68;69.61
55540;BME280;41384;51.418;7.286;2023-04-26T07:46:06;100146.13;;;7.70;67.54
55540;BME280;41384;51.418;7.286;2023-04-26T07:48:32;100145.06;;;7.79;67.81
55540;BME280;41384;51.418;7.286;2023-04-26T07:51:14;100147.50;;;7.81;68.36
55540;BME280;41384;51.418;7.286;2023-04-26T07:53:39;100147.03;;;7.92;68.16
55540;BME280;41384;51.418;7.286;2023-04-26T07:56:06;100141.00;;;7.92;64.50
55540;BME280;41384;51.418;7.286;2023-04-26T07:58:33;100149.50;;;7.94;63.67
55540;BME280;41384;51.418;7.286;2023-04-26T08:00:58;100151.31;;;8.08;64.56
55540;BME280;41384;51.418;7.286;2023-04-26T08:03:24;100143.00;;;8.05;65.40
55540;BME280;41384;51.418;7.286;2023-04-26T08:05:51;100149.41;;;7.87;63.68
55540;BME280;41384;51.418;7.286;2023-04-26T08:08:18;100143.78;;;7.90;64.25
55540;BME280;41384;51.418;7.286;2023-04-26T08:10:43;100146.63;;;8.03;61.43
55540;BME280;41384;51.418;7.286;2023-04-26T08:13:08;100143.63;;;8.07;61.64
55540;BME280;41384;51.418;7.286;2023-04-26T08:15:33;100139.06;;;8.15;60.40
55540;BME280;41384;51.418;7.286;2023-04-26T08:17:58;100143.50;;;8.30;59.75
55540;BME280;41384;51.418;7.286;2023-04-26T08:20:24;100135.88;;;8.35;59.75
55540;BME280;41384;51.418;7.286;2023-04-26T08:22:54;100141.06;;;8.43;60.89
55540;BME280;41384;51.418;7.286;2023-04-26T08:25:19;100133.63;;;8.62;61.07
55540;BME280;41384;51.418;7.286;2023-04-26T08:27:45;100141.41;;;8.70;59.52
55540;BME280;41384;51.418;7.286;2023-04-26T08:30:11;100143.69;;;8.58;59.73
55540;BME280;41384;51.418;7.286;2023-04-26T08:32:36;100142.63;;;8.53;59.22
55540;BME280;41384;51.418;7.286;2023-04-26T08:35:02;100137.88;;;8.48;60.06
55540;BME280;41384;51.418;7.286;2023-04-26T08:37:27;100138.06;;;8.61;59.71
55540;BME280;41384;51.418;7.286;2023-04-26T08:39:53;100135.69;;;8.67;60.23
55540;BME280;41384;51.418;7.286;2023-04-26T08:42:19;100144.78;;;8.64;58.99
55540;BME280;41384;51.418;7.286;2023-04-26T08:44:44;100145.25;;;8.53;58.08
55540;BME280;41384;51.418;7.286;2023-04-26T08:47:55;100150.03;;;8.64;58.47
55540;BME280;41384;51.418;7.286;2023-04-26T08:50:24;100147.09;;;8.74;56.92
55540;BME280;41384;51.418;7.286;2023-04-26T08:52:50;100138.53;;;8.87;56.14
55540;BME280;41384;51.418;7.286;2023-04-26T08:55:17;100137.78;;;8.93;55.16
55540;BME280;41384;51.418;7.286;2023-04-26T08:57:48;100138.16;;;9.12;56.59
55540;BME280;41384;51.418;7.286;2023-04-26T09:00:14;100141.00;;;9.10;55.07
55540;BME280;41384;51.418;7.286;2023-04-26T09:02:47;100132.28;;;9.31;53.99
55540;BME280;41384;51.418;7.286;2023-04-26T09:05:13;100144.00;;;9.07;54.81
55540;BME280;41384;51.418;7.286;2023-04-26T09:07:46;100140.50;;;9.22;55.36
55540;BME280;41384;51.418;7.286;2023-04-26T09:10:13;100139.97;;;9.33;54.10
55540;BME280;41384;51.418;7.286;2023-04-26T09:12:40;100140.97;;;9.32;53.38
55540;BME280;41384;51.418;7.286;2023-04-26T09:15:06;100138.41;;;9.39;52.91
55540;BME280;41384;51.418;7.286;2023-04-26T09:17:34;100130.69;;;9.37;52.45
55540;BME280;41384;51.418;7.286;2023-04-26T09:20:01;100139.56;;;9.29;51.99
55540;BME280;41384;51.418;7.286;2023-04-26T09:22:41;100137.69;;;9.52;52.45
55540;BME280;41384;51.418;7.286;2023-04-26T09:25:06;100144.72;;;9.44;53.81
55540;BME280;41384;51.418;7.286;2023-04-26T09:27:37;100135.09;;;9.58;54.03
55540;BME280;41384;51.418;7.286;2023-04-26T09:30:07;100135.91;;;9.30;51.10
55540;BME280;41384;51.418;7.286;2023-04-26T09:35:23;100138.47;;;9.74;53.13
55540;BME280;41384;51.418;7.286;2023-04-26T09:38:00;100137.91;;;9.85;52.09
55540;BME280;41384;51.418;7.286;2023-04-26T09:40:31;100132.09;;;9.97;50.99
55540;BME280;41384;51.418;7.286;2023-04-26T09:43:02;100127.13;;;9.80;50.85
55540;BME280;41384;51.418;7.286;2023-04-26T09:45:29;100132.63;;;9.50;49.08
55540;BME280;41384;51.418;7.286;2023-04-26T09:48:11;100132.38;;;9.45;49.67
55540;BME280;41384;51.418;7.286;2023-04-26T09:50:37;100138.03;;;9.42;49.89
55540;BME280;41384;51.418;7.286;2023-04-26T09:53:02;100135.66;;;9.03;49.43
55540;BME280;41384;51.418;7.286;2023-04-26T09:55:29;100141.66;;;9.19;50.50
55540;BME280;41384;51.418;7.286;2023-04-26T09:57:56;100144.13;;;8.99;52.45
55540;BME280;41384;51.418;7.286;2023-04-26T10:00:23;100142.25;;;8.93;53.00
55540;BME280;41384;51.418;7.286;2023-04-26T10:02:50;100131.38;;;9.02;53.71
55540;BME280;41384;51.418;7.286;2023-04-26T10:05:16;100140.41;;;9.15;53.54
55540;BME280;41384;51.418;7.286;2023-04-26T10:07:41;100142.25;;;9.14;52.87
55540;BME280;41384;51.418;7.286;2023-04-26T10:10:08;100138.22;;;9.18;53.35
55540;BME280;41384;51.418;7.286;2023-04-26T10:12:34;100133.81;;;9.47;53.17
55540;BME280;41384;51.418;7.286;2023-04-26T10:15:02;100129.13;;;8.99;52.70
55540;BME280;41384;51.418;7.286;2023-04-26T10:17:28;100129.22;;;9.56;52.59
55540;BME280;41384;51.418;7.286;2023-04-26T10:19:57;100124.19;;;9.97;51.62
55540;BME280;41384;51.418;7.286;2023-04-26T10:22:27;100128.38;;;10.19;51.63
55540;BME280;41384;51.418;7.286;2023-04-26T10:24:54;100128.66;;;10.38;49.94
55540;BME280;41384;51.418;7.286;2023-04-26T10:27:45;100130.88;;;10.34;50.10
55540;BME280;41384;51.418;7.286;2023-04-26T10:30:15;100125.28;;;10.09;49.78
55540;BME280;41384;51.418;7.286;2023-04-26T10:35:32;100135.19;;;10.07;47.01
55540;BME280;41384;51.418;7.286;2023-04-26T10:40:31;100120.59;;;10.53;46.43
55540;BME280;41384;51.418;7.286;2023-04-26T10:45:34;100106.44;;;10.61;47.77
55540;BME280;41384;51.418;7.286;2023-04-26T10:48:17;100113.75;;;10.72;48.70
55540;BME280;41384;51.418;7.286;2023-04-26T10:53:30;100099.56;;;10.80;48.84
55540;BME280;41384;51.418;7.286;2023-04-26T10:55:56;100106.09;;;11.11;47.17
55540;BME280;41384;51.418;7.286;2023-04-26T10:58:34;100102.88;;;11.16;47.07
55540;BME280;41384;51.418;7.286;2023-04-26T11:01:14;100115.53;;;10.58;47.67
55540;BME280;41384;51.418;7.286;2023-04-26T11:06:23;100110.50;;;10.63;49.16
55540;BME280;41384;51.418;7.286;2023-04-26T11:08:48;100117.59;;;10.63;47.42
55540;BME280;41384;51.418;7.286;2023-04-26T11:11:16;100109.03;;;10.54;47.28
55540;BME280;41384;51.418;7.286;2023-04-26T11:13:44;100109.91;;;10.61;48.21
55540;BME280;41384;51.418;7.286;2023-04-26T11:16:14;100106.25;;;10.62;47.12
55540;BME280;41384;51.418;7.286;2023-04-26T11:18:43;100102.34;;;10.51;47.74
55540;BME280;41384;51.418;7.286;2023-04-26T11:21:09;100108.88;;;10.62;47.69
55540;BME280;41384;51.418;7.286;2023-04-26T11:23:36;100108.25;;;10.54;47.15
55540;BME280;41384;51.418;7.286;2023-04-26T11:26:03;100102.19;;;10.67;45.91
55540;BME280;41384;51.418;7.286;2023-04-26T11:28:29;100105.44;;;10.75;46.57
55540;BME280;41384;51.418;7.286;2023-04-26T11:30:55;100099.38;;;10.95;43.70
55540;BME280;41384;51.418;7.286;2023-04-26T11:33:21;100104.34;;;10.43;44.52
55540;BME280;41384;51.418;7.286;2023-04-26T11:35:48;100101.38;;;10.66;45.58
55540;BME280;41384;51.418;7.286;2023-04-26T11:38:14;100107.84;;;10.57;46.48
55540;BME280;41384;51.418;7.286;2023-04-26T11:40:40;100098.94;;;10.71;47.51
55540;BME280;41384;51.418;7.286;2023-04-26T11:43:06;100092.66;;;10.65;47.54
55540;BME280;41384;51.418;7.286;2023-04-26T11:45:34;100094.28;;;10.87;49.15
55540;BME280;41384;51.418;7.286;2023-04-26T11:48:02;100098.47;;;10.47;46.18
55540;BME280;41384;51.418;7.286;2023-04-26T11:50:30;100094.69;;;10.84;46.96
55540;BME280;41384;51.418;7.286;2023-04-26T11:52:58;100079.47;;;11.06;47.38
55540;BME280;41384;51.418;7.286;2023-04-26T11:55:28;100076.81;;;11.60;47.42
55540;BME280;41384;51.418;7.286;2023-04-26T11:57:55;100082.47;;;11.77;45.74
55540;BME280;41384;51.418;7.286;2023-04-26T12:00:21;100080.88;;;11.69;46.23
55540;BME280;41384;51.418;7.286;2023-04-26T12:02:47;100080.69;;;11.50;46.09
55540;BME280;41384;51.418;7.286;2023-04-26T12:05:27;100084.78;;;11.13;45.03
55540;BME280;41384;51.418;7.286;2023-04-26T12:07:56;100082.72;;;11.01;44.92
55540;BME280;41384;51.418;7.286;2023-04-26T12:10:27;100094.09;;;10.95;45.28
55540;BME280;41384;51.418;7.286;2023-04-26T12:12:54;100091.66;;;10.87;45.33
55540;BME280;41384;51.418;7.286;2023-04-26T12:15:30;100088.81;;;10.82;46.04
55540;BME280;41384;51.418;7.286;2023-04-26T12:17:58;100096.66;;;10.55;46.18
55540;BME280;41384;51.418;7.286;2023-04-26T12:20:31;100092.03;;;10.15;45.87
55540;BME280;41384;51.418;7.286;2023-04-26T12:23:04;100098.59;;;10.26;46.78
55540;BME280;41384;51.418;7.286;2023-04-26T12:25:30;100094.22;;;10.46;46.34
55540;BME280;41384;51.418;7.286;2023-04-26T12:27:56;100080.84;;;10.68;46.73
55540;BME280;41384;51.418;7.286;2023-04-26T12:30:21;100089.22;;;10.72;47.29
55540;BME280;41384;51.418;7.286;2023-04-26T12:32:47;100100.81;;;10.84;47.16
55540;BME280;41384;51.418;7.286;2023-04-26T12:35:12;100087.22;;;11.07;47.18
55540;BME280;41384;51.418;7.286;2023-04-26T12:37:37;100089.81;;;10.80;46.09
55540;BME280;41384;51.418;7.286;2023-04-26T12:40:03;100088.78;;;10.68;46.75
55540;BME280;41384;51.418;7.286;2023-04-26T12:42:30;100089.19;;;10.65;46.60
55540;BME280;41384;51.418;7.286;2023-04-26T12:44:56;100096.44;;;10.49;47.03
55540;BME280;41384;51.418;7.286;2023-04-26T12:47:21;100098.19;;;10.29;46.86
55540;BME280;41384;51.418;7.286;2023-04-26T12:49:47;100095.94;;;10.32;47.19
55540;BME280;41384;51.418;7.286;2023-04-26T12:52:12;100106.88;;;10.22;47.29
55540;BME280;41384;51.418;7.286;2023-04-26T12:54:37;100097.31;;;10.15;46.75
55540;BME280;41384;51.418;7.286;2023-04-26T12:57:02;100092.50;;;10.32;47.93
55540;BME280;41384;51.418;7.286;2023-04-26T12:59:28;100097.47;;;10.55;48.25
55540;BME280;41384;51.418;7.286;2023-04-26T13:01:53;100088.34;;;10.58;48.21
55540;BME280;41384;51.418;7.286;2023-04-26T13:04:18;100093.81;;;10.56;45.98
55540;BME280;41384;51.418;7.286;2023-04-26T13:06:43;100098.69;;;10.53;47.91
55540;BME280;41384;51.418;7.286;2023-04-26T13:09:09;100102.56;;;10.57;47.02
55540;BME280;41384;51.418;7.286;2023-04-26T13:11:37;100096.25;;;10.51;46.62